YLBO weather

Lake Bolac Airport
Victoria, Australia

Public forecast

Using degrees Celsius for public forecast. Weather courtesy of forecast.io.

METAR (pilot weather report)

Closest report is Avalon Airport, 78.2 nm (144.8 km) ESE. Retrieved 2019/03/27 00:00 UTC (1 minute ago):

YMAV 270000Z AUTO 06002KT 9999 // NCD 18/07 Q1024 RF00.0/000.0

TAF (pilot weather forecast)

Forecast is more than 12 hours old.

Closest forecast is Avalon Airport, 78.2 nm (144.8 km) ESE. Retrieved 2019/03/26 00:00 UTC (1 day ago):

TAF YMAV 262320Z 2700/2724 30007KT 9999 SCT035 BECMG 2701/2703 11009KT CAVOK BECMG 2711/2713 35007KT CAVOK